sensor_id;sensor_type;location;lat;lon;timestamp;temperature;humidity
22706;DHT22;11520;51.198;4.468;2023-02-16T00:00:22;6.80;99.90
22706;DHT22;11520;51.198;4.468;2023-02-16T00:02:50;6.80;99.90
22706;DHT22;11520;51.198;4.468;2023-02-16T00:05:33;6.80;99.90
22706;DHT22;11520;51.198;4.468;2023-02-16T00:07:59;6.80;99.90
22706;DHT22;11520;51.198;4.468;2023-02-16T00:10:31;6.80;99.90
22706;DHT22;11520;51.198;4.468;2023-02-16T00:12:57;6.70;99.90
22706;DHT22;11520;51.198;4.468;2023-02-16T00:15:41;6.70;99.90
22706;DHT22;11520;51.198;4.468;2023-02-16T00:18:17;6.70;99.90
22706;DHT22;11520;51.198;4.468;2023-02-16T00:20:44;6.60;99.90
22706;DHT22;11520;51.198;4.468;2023-02-16T00:23:10;6.60;99.90
22706;DHT22;11520;51.198;4.468;2023-02-16T00:25:37;6.60;99.90
22706;DHT22;11520;51.198;4.468;2023-02-16T00:28:15;6.60;99.90
22706;DHT22;11520;51.198;4.468;2023-02-16T00:30:43;6.60;99.90
22706;DHT22;11520;51.198;4.468;2023-02-16T00:33:20;6.70;99.90
22706;DHT22;11520;51.198;4.468;2023-02-16T00:35:46;6.70;99.90
22706;DHT22;11520;51.198;4.468;2023-02-16T00:38:12;6.70;99.90
22706;DHT22;11520;51.198;4.468;2023-02-16T00:40:39;6.60;99.90
22706;DHT22;11520;51.198;4.468;2023-02-16T00:43:06;6.60;99.90
22706;DHT22;11520;51.198;4.468;2023-02-16T00:45:36;6.60;99.90
22706;DHT22;11520;51.198;4.468;2023-02-16T00:48:08;6.60;99.90
22706;DHT22;11520;51.198;4.468;2023-02-16T00:50:36;6.60;99.90
22706;DHT22;11520;51.198;4.468;2023-02-16T00:53:01;6.50;99.90
22706;DHT22;11520;51.198;4.468;2023-02-16T00:55:30;6.50;99.90
22706;DHT22;11520;51.198;4.468;2023-02-16T01:00:50;6.40;99.90
22706;DHT22;11520;51.198;4.468;2023-02-16T01:03:21;6.40;99.90
22706;DHT22;11520;51.198;4.468;2023-02-16T01:05:47;6.30;99.90
22706;DHT22;11520;51.198;4.468;2023-02-16T01:08:36;6.30;99.90
22706;DHT22;11520;51.198;4.468;2023-02-16T01:11:21;6.30;99.90
22706;DHT22;11520;51.198;4.468;2023-02-16T01:13:50;6.20;99.90
22706;DHT22;11520;51.198;4.468;2023-02-16T01:16:39;6.20;99.90
22706;DHT22;11520;51.198;4.468;2023-02-16T01:19:06;6.10;99.90
22706;DHT22;11520;51.198;4.468;2023-02-16T01:21:31;6.10;99.90
22706;DHT22;11520;51.198;4.468;2023-02-16T01:23:58;6.20;99.90
22706;DHT22;11520;51.198;4.468;2023-02-16T01:26:25;6.20;99.90
22706;DHT22;11520;51.198;4.468;2023-02-16T01:28:50;6.20;99.90
22706;DHT22;11520;51.198;4.468;2023-02-16T01:31:17;6.20;99.90
22706;DHT22;11520;51.198;4.468;2023-02-16T01:33:44;6.20;99.90
22706;DHT22;11520;51.198;4.468;2023-02-16T01:36:23;6.30;99.90
22706;DHT22;11520;51.198;4.468;2023-02-16T01:38:50;6.30;99.90
22706;DHT22;11520;51.198;4.468;2023-02-16T01:44:24;6.30;99.90
22706;DHT22;11520;51.198;4.468;2023-02-16T01:49:31;6.30;99.90
22706;DHT22;11520;51.198;4.468;2023-02-16T01:57:40;6.40;99.90
22706;DHT22;11520;51.198;4.468;2023-02-16T02:00:27;6.40;99.90
22706;DHT22;11520;51.198;4.468;2023-02-16T02:02:59;6.40;99.90
22706;DHT22;11520;51.198;4.468;2023-02-16T02:05:47;6.30;99.90
22706;DHT22;11520;51.198;4.468;2023-02-16T02:10:56;6.40;99.90
22706;DHT22;11520;51.198;4.468;2023-02-16T02:16:21;6.40;99.90
22706;DHT22;11520;51.198;4.468;2023-02-16T02:18:49;6.40;99.90
22706;DHT22;11520;51.198;4.468;2023-02-16T02:29:52;6.30;99.90
22706;DHT22;11520;51.198;4.468;2023-02-16T02:40:33;6.30;99.90
22706;DHT22;11520;51.198;4.468;2023-02-16T02:43:15;6.20;99.90
22706;DHT22;11520;51.198;4.468;2023-02-16T02:45:48;6.20;99.90
22706;DHT22;11520;51.198;4.468;2023-02-16T02:48:15;6.20;99.90
22706;DHT22;11520;51.198;4.468;2023-02-16T02:50:53;6.20;99.90
22706;DHT22;11520;51.198;4.468;2023-02-16T02:53:58;6.20;99.90
22706;DHT22;11520;51.198;4.468;2023-02-16T02:56:48;6.30;99.90
22706;DHT22;11520;51.198;4.468;2023-02-16T02:59:37;6.20;99.90
22706;DHT22;11520;51.198;4.468;2023-02-16T03:02:26;6.20;99.90
22706;DHT22;11520;51.198;4.468;2023-02-16T03:04:55;6.20;99.90
22706;DHT22;11520;51.198;4.468;2023-02-16T03:07:22;6.20;99.90
22706;DHT22;11520;51.198;4.468;2023-02-16T03:10:22;6.20;99.90
22706;DHT22;11520;51.198;4.468;2023-02-16T03:13:18;6.30;99.90
22706;DHT22;11520;51.198;4.468;2023-02-16T03:15:46;6.20;99.90
22706;DHT22;11520;51.198;4.468;2023-02-16T03:18:14;6.20;99.90
22706;DHT22;11520;51.198;4.468;2023-02-16T03:21:01;6.20;99.90
22706;DHT22;11520;51.198;4.468;2023-02-16T03:23:48;6.30;99.90
22706;DHT22;11520;51.198;4.468;2023-02-16T03:26:35;6.20;99.90
22706;DHT22;11520;51.198;4.468;2023-02-16T03:29:25;6.20;99.90
22706;DHT22;11520;51.198;4.468;2023-02-16T03:31:53;6.20;99.90
22706;DHT22;11520;51.198;4.468;2023-02-16T03:34:20;6.20;99.90
22706;DHT22;11520;51.198;4.468;2023-02-16T03:36:53;6.20;99.90
22706;DHT22;11520;51.198;4.468;2023-02-16T03:39:25;6.20;99.90
22706;DHT22;11520;51.198;4.468;2023-02-16T03:41:53;6.20;99.90
22706;DHT22;11520;51.198;4.468;2023-02-16T03:44:21;6.20;99.90
22706;DHT22;11520;51.198;4.468;2023-02-16T03:46:53;6.20;99.90
22706;DHT22;11520;51.198;4.468;2023-02-16T03:49:19;6.20;99.90
22706;DHT22;11520;51.198;4.468;2023-02-16T03:51:45;6.20;99.90
22706;DHT22;11520;51.198;4.468;2023-02-16T03:54:11;6.20;99.90
22706;DHT22;11520;51.198;4.468;2023-02-16T03:56:39;6.20;99.90
22706;DHT22;11520;51.198;4.468;2023-02-16T03:59:05;6.30;99.90
22706;DHT22;11520;51.198;4.468;2023-02-16T04:01:33;6.40;99.90
22706;DHT22;11520;51.198;4.468;2023-02-16T04:03:59;6.50;99.90
22706;DHT22;11520;51.198;4.468;2023-02-16T04:06:35;6.50;99.90
22706;DHT22;11520;51.198;4.468;2023-02-16T04:09:02;6.50;99.90
22706;DHT22;11520;51.198;4.468;2023-02-16T04:11:28;6.60;99.90
22706;DHT22;11520;51.198;4.468;2023-02-16T04:14:13;6.60;99.90
22706;DHT22;11520;51.198;4.468;2023-02-16T04:16:39;6.70;99.90
22706;DHT22;11520;51.198;4.468;2023-02-16T04:19:06;6.80;99.90
22706;DHT22;11520;51.198;4.468;2023-02-16T04:21:34;6.80;99.90
22706;DHT22;11520;51.198;4.468;2023-02-16T04:24:00;6.80;99.90
22706;DHT22;11520;51.198;4.468;2023-02-16T04:26:26;6.80;99.90
22706;DHT22;11520;51.198;4.468;2023-02-16T04:28:52;6.90;99.90
22706;DHT22;11520;51.198;4.468;2023-02-16T04:31:18;6.90;99.90
22706;DHT22;11520;51.198;4.468;2023-02-16T04:33:44;7.00;99.90
22706;DHT22;11520;51.198;4.468;2023-02-16T04:36:13;7.10;99.90
22706;DHT22;11520;51.198;4.468;2023-02-16T04:38:41;7.10;99.90
22706;DHT22;11520;51.198;4.468;2023-02-16T04:41:06;7.10;99.90
22706;DHT22;11520;51.198;4.468;2023-02-16T04:43:34;7.20;99.90
22706;DHT22;11520;51.198;4.468;2023-02-16T04:46:00;7.10;99.90
22706;DHT22;11520;51.198;4.468;2023-02-16T04:48:26;7.10;99.90
22706;DHT22;11520;51.198;4.468;2023-02-16T04:50:52;7.10;99.90
22706;DHT22;11520;51.198;4.468;2023-02-16T04:53:19;7.20;99.90
22706;DHT22;11520;51.198;4.468;2023-02-16T04:55:49;7.10;99.90
22706;DHT22;11520;51.198;4.468;2023-02-16T04:58:16;7.10;99.90
22706;DHT22;11520;51.198;4.468;2023-02-16T05:00:42;7.10;99.90
22706;DHT22;11520;51.198;4.468;2023-02-16T05:03:10;7.10;99.90
22706;DHT22;11520;51.198;4.468;2023-02-16T05:05:35;7.10;99.90
22706;DHT22;11520;51.198;4.468;2023-02-16T05:08:02;7.10;99.90
22706;DHT22;11520;51.198;4.468;2023-02-16T05:10:28;7.10;99.90
22706;DHT22;11520;51.198;4.468;2023-02-16T05:12:55;7.10;99.90
22706;DHT22;11520;51.198;4.468;2023-02-16T05:15:40;7.10;99.90
22706;DHT22;11520;51.198;4.468;2023-02-16T05:18:05;7.20;99.90
22706;DHT22;11520;51.198;4.468;2023-02-16T05:20:33;7.20;99.90
22706;DHT22;11520;51.198;4.468;2023-02-16T05:23:18;7.10;99.90
22706;DHT22;11520;51.198;4.468;2023-02-16T05:25:44;7.20;99.90
22706;DHT22;11520;51.198;4.468;2023-02-16T05:28:11;7.20;99.90
22706;DHT22;11520;51.198;4.468;2023-02-16T05:30:37;7.30;99.90
22706;DHT22;11520;51.198;4.468;2023-02-16T05:33:02;7.30;99.90
22706;DHT22;11520;51.198;4.468;2023-02-16T05:35:29;7.30;99.90
22706;DHT22;11520;51.198;4.468;2023-02-16T05:37:55;7.30;99.90
22706;DHT22;11520;51.198;4.468;2023-02-16T05:40:22;7.40;99.90
22706;DHT22;11520;51.198;4.468;2023-02-16T05:42:52;7.40;99.90
22706;DHT22;11520;51.198;4.468;2023-02-16T05:45:18;7.50;99.90
22706;DHT22;11520;51.198;4.468;2023-02-16T05:47:46;7.50;99.90
22706;DHT22;11520;51.198;4.468;2023-02-16T05:50:13;7.50;99.90
22706;DHT22;11520;51.198;4.468;2023-02-16T05:52:39;7.40;99.90
22706;DHT22;11520;51.198;4.468;2023-02-16T05:55:05;7.40;99.90
22706;DHT22;11520;51.198;4.468;2023-02-16T05:57:33;7.40;99.90
22706;DHT22;11520;51.198;4.468;2023-02-16T06:00:00;7.50;99.90
22706;DHT22;11520;51.198;4.468;2023-02-16T06:02:25;7.60;99.90
22706;DHT22;11520;51.198;4.468;2023-02-16T06:04:51;7.60;99.90
22706;DHT22;11520;51.198;4.468;2023-02-16T06:07:17;7.60;99.90
22706;DHT22;11520;51.198;4.468;2023-02-16T06:09:44;7.60;99.90
22706;DHT22;11520;51.198;4.468;2023-02-16T06:12:10;7.50;99.90
22706;DHT22;11520;51.198;4.468;2023-02-16T06:14:36;7.50;99.90
22706;DHT22;11520;51.198;4.468;2023-02-16T06:17:01;7.50;99.90
22706;DHT22;11520;51.198;4.468;2023-02-16T06:19:27;7.50;99.90
22706;DHT22;11520;51.198;4.468;2023-02-16T06:21:53;7.50;99.90
22706;DHT22;11520;51.198;4.468;2023-02-16T06:24:19;7.50;99.90
22706;DHT22;11520;51.198;4.468;2023-02-16T06:26:45;7.60;99.90
22706;DHT22;11520;51.198;4.468;2023-02-16T06:29:10;7.60;99.90
22706;DHT22;11520;51.198;4.468;2023-02-16T06:31:36;7.60;99.90
22706;DHT22;11520;51.198;4.468;2023-02-16T06:34:03;7.60;99.90
22706;DHT22;11520;51.198;4.468;2023-02-16T06:36:30;7.70;99.90
22706;DHT22;11520;51.198;4.468;2023-02-16T06:38:56;7.70;99.90
22706;DHT22;11520;51.198;4.468;2023-02-16T06:41:21;7.70;99.90
22706;DHT22;11520;51.198;4.468;2023-02-16T06:44:22;7.70;99.90
22706;DHT22;11520;51.198;4.468;2023-02-16T06:46:49;7.80;99.90
22706;DHT22;11520;51.198;4.468;2023-02-16T06:49:18;7.80;99.90
22706;DHT22;11520;51.198;4.468;2023-02-16T06:51:44;7.80;99.90
22706;DHT22;11520;51.198;4.468;2023-02-16T06:54:11;7.80;99.90
22706;DHT22;11520;51.198;4.468;2023-02-16T06:56:38;7.80;99.90
22706;DHT22;11520;51.198;4.468;2023-02-16T06:59:06;7.70;99.90
22706;DHT22;11520;51.198;4.468;2023-02-16T07:01:33;7.80;99.90
22706;DHT22;11520;51.198;4.468;2023-02-16T07:04:00;7.80;99.90
22706;DHT22;11520;51.198;4.468;2023-02-16T07:06:27;7.80;99.90
22706;DHT22;11520;51.198;4.468;2023-02-16T07:08:54;7.90;99.90
22706;DHT22;11520;51.198;4.468;2023-02-16T07:11:21;7.90;99.90
22706;DHT22;11520;51.198;4.468;2023-02-16T07:13:47;7.90;99.90
22706;DHT22;11520;51.198;4.468;2023-02-16T07:16:14;7.90;99.90
22706;DHT22;11520;51.198;4.468;2023-02-16T07:18:40;7.90;99.90
22706;DHT22;11520;51.198;4.468;2023-02-16T07:21:08;8.00;99.90
22706;DHT22;11520;51.198;4.468;2023-02-16T07:23:34;7.90;99.90
22706;DHT22;11520;51.198;4.468;2023-02-16T07:25:59;7.90;99.90
22706;DHT22;11520;51.198;4.468;2023-02-16T07:28:25;8.00;99.90
22706;DHT22;11520;51.198;4.468;2023-02-16T07:30:53;7.90;99.90
22706;DHT22;11520;51.198;4.468;2023-02-16T07:33:18;8.00;99.90
22706;DHT22;11520;51.198;4.468;2023-02-16T07:35:47;8.00;99.90
22706;DHT22;11520;51.198;4.468;2023-02-16T07:38:15;8.10;99.90
22706;DHT22;11520;51.198;4.468;2023-02-16T07:40:42;8.00;99.90
22706;DHT22;11520;51.198;4.468;2023-02-16T07:43:09;8.00;99.90
22706;DHT22;11520;51.198;4.468;2023-02-16T07:45:35;8.00;99.90
22706;DHT22;11520;51.198;4.468;2023-02-16T07:48:01;8.00;99.90
22706;DHT22;11520;51.198;4.468;2023-02-16T07:50:32;8.10;99.90
22706;DHT22;11520;51.198;4.468;2023-02-16T07:53:00;8.10;99.90
22706;DHT22;11520;51.198;4.468;2023-02-16T07:55:27;8.10;99.90
22706;DHT22;11520;51.198;4.468;2023-02-16T07:57:52;8.20;99.90
22706;DHT22;11520;51.198;4.468;2023-02-16T08:00:25;8.30;99.90
22706;DHT22;11520;51.198;4.468;2023-02-16T08:02:52;8.30;99.90
22706;DHT22;11520;51.198;4.468;2023-02-16T08:05:18;8.30;99.90
22706;DHT22;11520;51.198;4.468;2023-02-16T08:07:47;8.30;99.90
22706;DHT22;11520;51.198;4.468;2023-02-16T08:10:13;8.30;99.90
22706;DHT22;11520;51.198;4.468;2023-02-16T08:12:41;8.30;99.90
22706;DHT22;11520;51.198;4.468;2023-02-16T08:15:08;8.40;99.90
22706;DHT22;11520;51.198;4.468;2023-02-16T08:17:35;8.30;99.90
22706;DHT22;11520;51.198;4.468;2023-02-16T08:20:01;8.40;99.90
22706;DHT22;11520;51.198;4.468;2023-02-16T08:22:28;8.50;99.90
22706;DHT22;11520;51.198;4.468;2023-02-16T08:24:55;8.50;99.90
22706;DHT22;11520;51.198;4.468;2023-02-16T08:27:21;8.50;99.90
22706;DHT22;11520;51.198;4.468;2023-02-16T08:29:47;8.60;99.90
22706;DHT22;11520;51.198;4.468;2023-02-16T08:32:13;8.70;99.90
22706;DHT22;11520;51.198;4.468;2023-02-16T08:34:40;8.70;99.90
22706;DHT22;11520;51.198;4.468;2023-02-16T08:37:09;8.80;99.90
22706;DHT22;11520;51.198;4.468;2023-02-16T08:39:38;8.80;99.90
22706;DHT22;11520;51.198;4.468;2023-02-16T08:42:04;8.70;99.90
22706;DHT22;11520;51.198;4.468;2023-02-16T08:44:30;8.70;99.90
22706;DHT22;11520;51.198;4.468;2023-02-16T08:46:58;8.60;99.90
22706;DHT22;11520;51.198;4.468;2023-02-16T08:49:27;8.60;99.90
22706;DHT22;11520;51.198;4.468;2023-02-16T08:51:55;8.60;99.90
22706;DHT22;11520;51.198;4.468;2023-02-16T08:54:24;8.60;99.90
22706;DHT22;11520;51.198;4.468;2023-02-16T08:56:54;8.70;99.90
22706;DHT22;11520;51.198;4.468;2023-02-16T08:59:21;8.70;99.90
22706;DHT22;11520;51.198;4.468;2023-02-16T09:01:47;8.70;99.90
22706;DHT22;11520;51.198;4.468;2023-02-16T09:04:15;8.80;99.90
22706;DHT22;11520;51.198;4.468;2023-02-16T09:06:44;8.80;99.90
22706;DHT22;11520;51.198;4.468;2023-02-16T09:09:12;8.80;99.90
22706;DHT22;11520;51.198;4.468;2023-02-16T09:11:38;8.90;99.90
22706;DHT22;11520;51.198;4.468;2023-02-16T09:14:05;9.00;99.90
22706;DHT22;11520;51.198;4.468;2023-02-16T09:16:32;9.20;99.90
22706;DHT22;11520;51.198;4.468;2023-02-16T09:19:04;9.30;99.90
22706;DHT22;11520;51.198;4.468;2023-02-16T09:21:31;9.40;99.90
22706;DHT22;11520;51.198;4.468;2023-02-16T09:24:01;9.30;99.90
22706;DHT22;11520;51.198;4.468;2023-02-16T09:26:34;9.30;99.90
22706;DHT22;11520;51.198;4.468;2023-02-16T09:29:06;9.20;99.90
22706;DHT22;11520;51.198;4.468;2023-02-16T09:31:34;9.30;99.90
22706;DHT22;11520;51.198;4.468;2023-02-16T09:34:04;9.20;99.90
22706;DHT22;11520;51.198;4.468;2023-02-16T09:36:31;9.20;99.90
22706;DHT22;11520;51.198;4.468;2023-02-16T09:38:59;9.30;99.90
22706;DHT22;11520;51.198;4.468;2023-02-16T09:41:35;9.30;99.90
22706;DHT22;11520;51.198;4.468;2023-02-16T09:46:38;9.40;99.90
22706;DHT22;11520;51.198;4.468;2023-02-16T09:49:30;9.30;99.90
22706;DHT22;11520;51.198;4.468;2023-02-16T09:54:52;9.40;99.90
22706;DHT22;11520;51.198;4.468;2023-02-16T10:05:36;9.30;99.90
22706;DHT22;11520;51.198;4.468;2023-02-16T10:08:11;9.30;99.90
22706;DHT22;11520;51.198;4.468;2023-02-16T10:10:46;9.30;99.90
22706;DHT22;11520;51.198;4.468;2023-02-16T10:15:56;9.40;99.90
22706;DHT22;11520;51.198;4.468;2023-02-16T10:18:38;9.30;99.90
22706;DHT22;11520;51.198;4.468;2023-02-16T10:21:17;9.30;99.90
22706;DHT22;11520;51.198;4.468;2023-02-16T10:23:56;9.30;99.90
22706;DHT22;11520;51.198;4.468;2023-02-16T10:26:54;9.30;99.90
22706;DHT22;11520;51.198;4.468;2023-02-16T10:29:25;9.30;99.90
22706;DHT22;11520;51.198;4.468;2023-02-16T10:34:51;9.40;99.90
22706;DHT22;11520;51.198;4.468;2023-02-16T10:42:23;9.80;99.90
22706;DHT22;11520;51.198;4.468;2023-02-16T10:45:01;9.80;99.90
22706;DHT22;11520;51.198;4.468;2023-02-16T10:47:40;10.00;99.90
22706;DHT22;11520;51.198;4.468;2023-02-16T10:50:26;10.00;99.90
22706;DHT22;11520;51.198;4.468;2023-02-16T10:52:57;10.10;99.90
22706;DHT22;11520;51.198;4.468;2023-02-16T10:55:25;10.20;99.90
22706;DHT22;11520;51.198;4.468;2023-02-16T10:57:59;10.40;99.90
22706;DHT22;11520;51.198;4.468;2023-02-16T11:00:41;10.40;99.90
22706;DHT22;11520;51.198;4.468;2023-02-16T11:03:09;10.60;99.90
22706;DHT22;11520;51.198;4.468;2023-02-16T11:05:44;10.90;99.90
22706;DHT22;11520;51.198;4.468;2023-02-16T11:08:13;11.20;99.90
22706;DHT22;11520;51.198;4.468;2023-02-16T11:10:48;11.40;99.90
22706;DHT22;11520;51.198;4.468;2023-02-16T11:13:23;11.60;99.90
22706;DHT22;11520;51.198;4.468;2023-02-16T11:15:53;11.50;99.90
22706;DHT22;11520;51.198;4.468;2023-02-16T11:18:36;11.60;99.90
22706;DHT22;11520;51.198;4.468;2023-02-16T11:21:05;11.70;99.90
22706;DHT22;11520;51.198;4.468;2023-02-16T11:23:35;11.70;99.90
22706;DHT22;11520;51.198;4.468;2023-02-16T11:28:42;11.50;99.90
22706;DHT22;11520;51.198;4.468;2023-02-16T11:33:37;11.40;99.90
22706;DHT22;11520;51.198;4.468;2023-02-16T11:36:20;11.50;99.90
22706;DHT22;11520;51.198;4.468;2023-02-16T11:41:25;11.80;99.90
22706;DHT22;11520;51.198;4.468;2023-02-16T11:43:52;11.70;99.90
22706;DHT22;11520;51.198;4.468;2023-02-16T11:46:19;11.80;99.90
22706;DHT22;11520;51.198;4.468;2023-02-16T11:48:46;11.90;99.90
22706;DHT22;11520;51.198;4.468;2023-02-16T11:51:13;12.10;99.90
22706;DHT22;11520;51.198;4.468;2023-02-16T11:53:43;12.30;99.90
22706;DHT22;11520;51.198;4.468;2023-02-16T11:58:39;12.60;99.90
22706;DHT22;11520;51.198;4.468;2023-02-16T12:20:32;13.00;99.90
22706;DHT22;11520;51.198;4.468;2023-02-16T12:29:07;13.10;99.90
22706;DHT22;11520;51.198;4.468;2023-02-16T12:37:32;13.60;99.90
22706;DHT22;11520;51.198;4.468;2023-02-16T12:40:15;13.50;99.90
22706;DHT22;11520;51.198;4.468;2023-02-16T12:45:42;13.50;99.90
22706;DHT22;11520;51.198;4.468;2023-02-16T12:50:42;13.60;99.90
22706;DHT22;11520;51.198;4.468;2023-02-16T12:53:16;13.60;99.90
22706;DHT22;11520;51.198;4.468;2023-02-16T12:56:23;13.50;99.90
22706;DHT22;11520;51.198;4.468;2023-02-16T12:58:57;13.60;99.90
22706;DHT22;11520;51.198;4.468;2023-02-16T13:01:28;14.00;99.90
22706;DHT22;11520;51.198;4.468;2023-02-16T13:04:18;14.10;99.90
22706;DHT22;11520;51.198;4.468;2023-02-16T13:07:00;14.20;99.90
22706;DHT22;11520;51.198;4.468;2023-02-16T13:09:36;14.20;99.90
22706;DHT22;11520;51.198;4.468;2023-02-16T13:12:32;14.00;99.90
22706;DHT22;11520;51.198;4.468;2023-02-16T13:17:45;13.80;99.90
22706;DHT22;11520;51.198;4.468;2023-02-16T13:20:18;13.70;99.90
22706;DHT22;11520;51.198;4.468;2023-02-16T13:28:39;13.70;99.90
22706;DHT22;11520;51.198;4.468;2023-02-16T13:31:35;13.70;99.90
22706;DHT22;11520;51.198;4.468;2023-02-16T13:35:11;13.70;99.90
22706;DHT22;11520;51.198;4.468;2023-02-16T13:45:53;13.70;99.90
22706;DHT22;11520;51.198;4.468;2023-02-16T13:48:29;13.60;99.90
22706;DHT22;11520;51.198;4.468;2023-02-16T13:51:03;13.70;99.90
22706;DHT22;11520;51.198;4.468;2023-02-16T13:53:35;13.60;99.90
22706;DHT22;11520;51.198;4.468;2023-02-16T13:56:22;13.70;99.90
22706;DHT22;11520;51.198;4.468;2023-02-16T13:58:59;13.70;99.90
22706;DHT22;11520;51.198;4.468;2023-02-16T14:01:44;13.60;99.90
22706;DHT22;11520;51.198;4.468;2023-02-16T14:12:24;13.90;99.90
22706;DHT22;11520;51.198;4.468;2023-02-16T14:14:58;13.90;99.90
22706;DHT22;11520;51.198;4.468;2023-02-16T14:17:33;13.90;99.90
22706;DHT22;11520;51.198;4.468;2023-02-16T14:22:56;13.80;99.90
22706;DHT22;11520;51.198;4.468;2023-02-16T14:27:57;13.70;99.90
22706;DHT22;11520;51.198;4.468;2023-02-16T14:30:50;13.70;99.90
22706;DHT22;11520;51.198;4.468;2023-02-16T14:36:21;13.50;99.90
22706;DHT22;11520;51.198;4.468;2023-02-16T14:38:54;13.30;99.90
22706;DHT22;11520;51.198;4.468;2023-02-16T14:43:50;13.10;99.90
22706;DHT22;11520;51.198;4.468;2023-02-16T14:52:24;13.00;99.90
22706;DHT22;11520;51.198;4.468;2023-02-16T15:05:26;12.90;99.90
22706;DHT22;11520;51.198;4.468;2023-02-16T15:10:36;12.90;99.90
22706;DHT22;11520;51.198;4.468;2023-02-16T15:13:05;12.80;99.90
22706;DHT22;11520;51.198;4.468;2023-02-16T15:17:59;12.80;99.90
22706;DHT22;11520;51.198;4.468;2023-02-16T15:23:15;12.70;99.90
22706;DHT22;11520;51.198;4.468;2023-02-16T15:25:58;12.80;99.90
22706;DHT22;11520;51.198;4.468;2023-02-16T15:28:26;12.80;99.90
22706;DHT22;11520;51.198;4.468;2023-02-16T15:30:56;12.70;99.90
22706;DHT22;11520;51.198;4.468;2023-02-16T15:35:54;12.60;99.90
22706;DHT22;11520;51.198;4.468;2023-02-16T15:38:34;12.60;99.90
22706;DHT22;11520;51.198;4.468;2023-02-16T15:41:03;12.60;99.90
22706;DHT22;11520;51.198;4.468;2023-02-16T15:43:48;12.60;99.90
22706;DHT22;11520;51.198;4.468;2023-02-16T15:48:55;12.30;99.90
22706;DHT22;11520;51.198;4.468;2023-02-16T15:51:31;12.40;99.90
22706;DHT22;11520;51.198;4.468;2023-02-16T15:54:00;12.30;99.90
22706;DHT22;11520;51.198;4.468;2023-02-16T15:56:32;12.20;99.90
22706;DHT22;11520;51.198;4.468;2023-02-16T16:08:13;12.10;99.90
22706;DHT22;11520;51.198;4.468;2023-02-16T16:10:41;12.00;99.90
22706;DHT22;11520;51.198;4.468;2023-02-16T16:13:36;12.00;99.90
22706;DHT22;11520;51.198;4.468;2023-02-16T16:16:03;12.10;99.90
22706;DHT22;11520;51.198;4.468;2023-02-16T16:18:44;12.10;99.90
22706;DHT22;11520;51.198;4.468;2023-02-16T16:21:23;12.10;99.90
22706;DHT22;11520;51.198;4.468;2023-02-16T16:26:27;12.00;99.90
22706;DHT22;11520;51.198;4.468;2023-02-16T16:28:54;12.00;99.90
22706;DHT22;11520;51.198;4.468;2023-02-16T16:34:06;11.90;99.90
22706;DHT22;11520;51.198;4.468;2023-02-16T16:36:38;11.90;99.90
22706;DHT22;11520;51.198;4.468;2023-02-16T16:41:37;11.70;99.90
22706;DHT22;11520;51.198;4.468;2023-02-16T16:44:12;11.70;99.90
22706;DHT22;11520;51.198;4.468;2023-02-16T16:46:52;11.70;99.90
22706;DHT22;11520;51.198;4.468;2023-02-16T16:49:18;11.70;99.90
22706;DHT22;11520;51.198;4.468;2023-02-16T16:51:51;11.70;99.90
22706;DHT22;11520;51.198;4.468;2023-02-16T16:54:35;11.70;99.90
22706;DHT22;11520;51.198;4.468;2023-02-16T16:57:15;11.60;99.90
22706;DHT22;11520;51.198;4.468;2023-02-16T16:59:41;11.60;99.90
22706;DHT22;11520;51.198;4.468;2023-02-16T17:02:09;11.60;99.90
22706;DHT22;11520;51.198;4.468;2023-02-16T17:04:36;11.60;99.90
22706;DHT22;11520;51.198;4.468;2023-02-16T17:07:03;11.60;99.90
22706;DHT22;11520;51.198;4.468;2023-02-16T17:09:29;11.60;99.90
22706;DHT22;11520;51.198;4.468;2023-02-16T17:11:55;11.60;99.90
22706;DHT22;11520;51.198;4.468;2023-02-16T17:14:22;11.50;99.90
22706;DHT22;11520;51.198;4.468;2023-02-16T17:16:54;11.50;99.90
22706;DHT22;11520;51.198;4.468;2023-02-16T17:19:21;11.50;99.90
22706;DHT22;11520;51.198;4.468;2023-02-16T17:21:48;11.50;99.90
22706;DHT22;11520;51.198;4.468;2023-02-16T17:24:20;11.50;99.90
22706;DHT22;11520;51.198;4.468;2023-02-16T17:26:48;11.50;99.90
22706;DHT22;11520;51.198;4.468;2023-02-16T17:29:28;11.50;99.90
22706;DHT22;11520;51.198;4.468;2023-02-16T17:31:55;11.50;99.90
22706;DHT22;11520;51.198;4.468;2023-02-16T17:34:27;11.50;99.90
22706;DHT22;11520;51.198;4.468;2023-02-16T17:37:00;11.50;99.90
22706;DHT22;11520;51.198;4.468;2023-02-16T17:39:31;11.50;99.90
22706;DHT22;11520;51.198;4.468;2023-02-16T17:41:58;11.50;99.90
22706;DHT22;11520;51.198;4.468;2023-02-16T17:44:25;11.50;99.90
22706;DHT22;11520;51.198;4.468;2023-02-16T17:46:52;11.50;99.90
22706;DHT22;11520;51.198;4.468;2023-02-16T17:49:20;11.50;99.90
22706;DHT22;11520;51.198;4.468;2023-02-16T17:51:46;11.50;99.90
22706;DHT22;11520;51.198;4.468;2023-02-16T17:54:11;11.50;99.90
22706;DHT22;11520;51.198;4.468;2023-02-16T17:56:39;11.50;99.90
22706;DHT22;11520;51.198;4.468;2023-02-16T17:59:05;11.50;99.90
22706;DHT22;11520;51.198;4.468;2023-02-16T18:01:32;11.40;99.90
22706;DHT22;11520;51.198;4.468;2023-02-16T18:04:00;11.40;99.90
22706;DHT22;11520;51.198;4.468;2023-02-16T18:06:30;11.40;99.90
22706;DHT22;11520;51.198;4.468;2023-02-16T18:08:58;11.40;99.90
22706;DHT22;11520;51.198;4.468;2023-02-16T18:11:26;11.40;99.90
22706;DHT22;11520;51.198;4.468;2023-02-16T18:13:54;11.40;99.90
22706;DHT22;11520;51.198;4.468;2023-02-16T18:16:24;11.30;99.90
22706;DHT22;11520;51.198;4.468;2023-02-16T18:18:50;11.30;99.90
22706;DHT22;11520;51.198;4.468;2023-02-16T18:21:15;11.30;99.90
22706;DHT22;11520;51.198;4.468;2023-02-16T18:23:41;11.30;99.90
22706;DHT22;11520;51.198;4.468;2023-02-16T18:26:07;11.20;99.90
22706;DHT22;11520;51.198;4.468;2023-02-16T18:28:33;11.10;99.90
22706;DHT22;11520;51.198;4.468;2023-02-16T18:31:04;11.10;99.90
22706;DHT22;11520;51.198;4.468;2023-02-16T18:33:30;11.10;99.90
22706;DHT22;11520;51.198;4.468;2023-02-16T18:35:56;11.10;99.90
22706;DHT22;11520;51.198;4.468;2023-02-16T18:38:24;11.00;99.90
22706;DHT22;11520;51.198;4.468;2023-02-16T18:40:52;11.10;99.90
22706;DHT22;11520;51.198;4.468;2023-02-16T18:43:18;11.10;99.90
22706;DHT22;11520;51.198;4.468;2023-02-16T18:45:45;11.10;99.90
22706;DHT22;11520;51.198;4.468;2023-02-16T18:48:12;11.10;99.90
22706;DHT22;11520;51.198;4.468;2023-02-16T18:50:38;11.10;99.90
22706;DHT22;11520;51.198;4.468;2023-02-16T18:53:05;11.00;99.90
22706;DHT22;11520;51.198;4.468;2023-02-16T18:55:30;11.00;99.90
22706;DHT22;11520;51.198;4.468;2023-02-16T18:58:00;11.00;99.90
22706;DHT22;11520;51.198;4.468;2023-02-16T19:00:28;11.00;99.90
22706;DHT22;11520;51.198;4.468;2023-02-16T19:02:54;11.00;99.90
22706;DHT22;11520;51.198;4.468;2023-02-16T19:05:20;11.00;99.90
22706;DHT22;11520;51.198;4.468;2023-02-16T19:07:46;10.90;99.90
22706;DHT22;11520;51.198;4.468;2023-02-16T19:10:12;10.90;99.90
22706;DHT22;11520;51.198;4.468;2023-02-16T19:12:39;10.90;99.90